Carroll, New Hampshire
Current Conditions -  °F | °C
As of 4:25 AM on Friday 24 Oct 2014 (Local Time) from KHIE Reporting Station
Light Rain Light Rain  
Wind Chill: 45°   Ceiling: 600
Heat Index: 45°   Visibility: 6mi
Dew Point: 43°   Wind: 0mph
Humidity: 93%   Direction: NA
Pressure: 29.74"   Gusts: NA
Location:  44.3374°N, 71.528°W
Report Text: KHIE 240825Z AUTO 00000KT 6SM -RA BR BKN006 OVC015 07/06 A2974 RMK AO2 P0001 T00720061 $
Loading
Personal Weather Stations






























Interactive Weather Map
Tropical Storm Tracking
New forecast layout! Learn more

10-Day Weather Forecast

Advertisements
Track Severe Weather on mobile